sensor_id;sensor_type;location;lat;lon;timestamp;P1;durP1;ratioP1;P2;durP2;ratioP2
9328;SDS011;4703;48.748;19.142;2023-05-07T00:02:00;5.63;;;5.13;;
9328;SDS011;4703;48.748;19.142;2023-05-07T00:04:27;6.17;;;5.67;;
9328;SDS011;4703;48.748;19.142;2023-05-07T00:06:54;5.40;;;5.00;;
9328;SDS011;4703;48.748;19.142;2023-05-07T00:09:21;6.07;;;5.40;;
9328;SDS011;4703;48.748;19.142;2023-05-07T00:11:48;5.47;;;4.97;;
9328;SDS011;4703;48.748;19.142;2023-05-07T00:14:15;5.43;;;4.87;;
9328;SDS011;4703;48.748;19.142;2023-05-07T00:16:42;5.23;;;4.83;;
9328;SDS011;4703;48.748;19.142;2023-05-07T00:19:09;6.47;;;5.80;;
9328;SDS011;4703;48.748;19.142;2023-05-07T00:21:36;5.90;;;5.40;;
9328;SDS011;4703;48.748;19.142;2023-05-07T00:24:03;5.53;;;5.03;;
9328;SDS011;4703;48.748;19.142;2023-05-07T00:26:31;5.43;;;4.93;;
9328;SDS011;4703;48.748;19.142;2023-05-07T00:28:57;5.63;;;5.23;;
9328;SDS011;4703;48.748;19.142;2023-05-07T00:31:24;7.53;;;5.60;;
9328;SDS011;4703;48.748;19.142;2023-05-07T00:33:51;5.93;;;4.70;;
9328;SDS011;4703;48.748;19.142;2023-05-07T00:36:18;4.97;;;4.53;;
9328;SDS011;4703;48.748;19.142;2023-05-07T00:38:45;6.53;;;5.97;;
9328;SDS011;4703;48.748;19.142;2023-05-07T00:41:12;5.77;;;5.27;;
9328;SDS011;4703;48.748;19.142;2023-05-07T00:43:39;6.60;;;5.47;;
9328;SDS011;4703;48.748;19.142;2023-05-07T00:46:06;6.07;;;5.57;;
9328;SDS011;4703;48.748;19.142;2023-05-07T00:48:33;10.67;;;4.80;;
9328;SDS011;4703;48.748;19.142;2023-05-07T00:51:00;5.53;;;4.93;;
9328;SDS011;4703;48.748;19.142;2023-05-07T00:53:28;5.07;;;4.57;;
9328;SDS011;4703;48.748;19.142;2023-05-07T00:55:55;5.40;;;4.90;;
9328;SDS011;4703;48.748;19.142;2023-05-07T00:58:22;5.87;;;4.47;;
9328;SDS011;4703;48.748;19.142;2023-05-07T01:00:50;4.43;;;4.03;;
9328;SDS011;4703;48.748;19.142;2023-05-07T01:03:17;4.90;;;4.53;;
9328;SDS011;4703;48.748;19.142;2023-05-07T01:05:44;6.50;;;4.53;;
9328;SDS011;4703;48.748;19.142;2023-05-07T01:08:13;5.23;;;4.73;;
9328;SDS011;4703;48.748;19.142;2023-05-07T01:10:41;5.40;;;4.93;;
9328;SDS011;4703;48.748;19.142;2023-05-07T01:13:10;4.63;;;4.13;;
9328;SDS011;4703;48.748;19.142;2023-05-07T01:15:38;4.60;;;4.30;;
9328;SDS011;4703;48.748;19.142;2023-05-07T01:18:07;5.37;;;4.93;;
9328;SDS011;4703;48.748;19.142;2023-05-07T01:20:34;5.73;;;5.30;;
9328;SDS011;4703;48.748;19.142;2023-05-07T01:23:01;4.57;;;4.17;;
9328;SDS011;4703;48.748;19.142;2023-05-07T01:25:29;4.53;;;4.13;;
9328;SDS011;4703;48.748;19.142;2023-05-07T01:27:57;5.07;;;4.57;;
9328;SDS011;4703;48.748;19.142;2023-05-07T01:30:26;7.97;;;4.80;;
9328;SDS011;4703;48.748;19.142;2023-05-07T01:33:08;3.90;;;3.63;;
9328;SDS011;4703;48.748;19.142;2023-05-07T01:35:39;8.90;;;4.10;;
9328;SDS011;4703;48.748;19.142;2023-05-07T01:38:10;4.40;;;4.10;;
9328;SDS011;4703;48.748;19.142;2023-05-07T01:40:37;4.80;;;4.30;;
9328;SDS011;4703;48.748;19.142;2023-05-07T01:43:05;4.33;;;3.93;;
9328;SDS011;4703;48.748;19.142;2023-05-07T01:45:32;3.80;;;3.50;;
9328;SDS011;4703;48.748;19.142;2023-05-07T01:48:01;4.43;;;4.03;;
9328;SDS011;4703;48.748;19.142;2023-05-07T01:50:30;3.90;;;3.70;;
9328;SDS011;4703;48.748;19.142;2023-05-07T01:52:58;3.80;;;3.50;;
9328;SDS011;4703;48.748;19.142;2023-05-07T01:55:25;4.10;;;3.83;;
9328;SDS011;4703;48.748;19.142;2023-05-07T01:57:51;4.43;;;4.03;;
9328;SDS011;4703;48.748;19.142;2023-05-07T02:00:18;3.90;;;3.60;;
9328;SDS011;4703;48.748;19.142;2023-05-07T02:02:46;4.80;;;4.07;;
9328;SDS011;4703;48.748;19.142;2023-05-07T02:05:13;4.57;;;4.27;;
9328;SDS011;4703;48.748;19.142;2023-05-07T02:07:40;4.30;;;4.00;;
9328;SDS011;4703;48.748;19.142;2023-05-07T02:10:07;4.20;;;3.90;;
9328;SDS011;4703;48.748;19.142;2023-05-07T02:12:35;5.10;;;3.97;;
9328;SDS011;4703;48.748;19.142;2023-05-07T02:15:02;3.93;;;3.63;;
9328;SDS011;4703;48.748;19.142;2023-05-07T02:17:29;4.30;;;3.93;;
9328;SDS011;4703;48.748;19.142;2023-05-07T02:19:58;4.93;;;3.93;;
9328;SDS011;4703;48.748;19.142;2023-05-07T02:22:26;4.47;;;4.17;;
9328;SDS011;4703;48.748;19.142;2023-05-07T02:24:53;3.80;;;3.60;;
9328;SDS011;4703;48.748;19.142;2023-05-07T02:27:19;5.33;;;4.07;;
9328;SDS011;4703;48.748;19.142;2023-05-07T02:29:46;4.23;;;3.93;;
9328;SDS011;4703;48.748;19.142;2023-05-07T02:32:13;6.57;;;4.30;;
9328;SDS011;4703;48.748;19.142;2023-05-07T02:34:40;4.50;;;4.20;;
9328;SDS011;4703;48.748;19.142;2023-05-07T02:37:07;4.23;;;3.93;;
9328;SDS011;4703;48.748;19.142;2023-05-07T02:39:34;4.53;;;4.07;;
9328;SDS011;4703;48.748;19.142;2023-05-07T02:42:01;4.03;;;3.73;;
9328;SDS011;4703;48.748;19.142;2023-05-07T02:44:28;4.00;;;3.70;;
9328;SDS011;4703;48.748;19.142;2023-05-07T02:46:57;5.10;;;4.70;;
9328;SDS011;4703;48.748;19.142;2023-05-07T02:49:24;5.23;;;4.37;;
9328;SDS011;4703;48.748;19.142;2023-05-07T02:51:51;4.93;;;4.27;;
9328;SDS011;4703;48.748;19.142;2023-05-07T02:54:18;3.43;;;3.23;;
9328;SDS011;4703;48.748;19.142;2023-05-07T02:56:45;4.40;;;4.10;;
9328;SDS011;4703;48.748;19.142;2023-05-07T02:59:12;3.90;;;3.70;;
9328;SDS011;4703;48.748;19.142;2023-05-07T03:01:39;5.50;;;4.23;;
9328;SDS011;4703;48.748;19.142;2023-05-07T03:04:06;4.20;;;3.90;;
9328;SDS011;4703;48.748;19.142;2023-05-07T03:06:33;4.67;;;4.30;;
9328;SDS011;4703;48.748;19.142;2023-05-07T03:09:00;4.60;;;4.30;;
9328;SDS011;4703;48.748;19.142;2023-05-07T03:11:26;4.73;;;4.33;;
9328;SDS011;4703;48.748;19.142;2023-05-07T03:13:53;4.80;;;4.40;;
9328;SDS011;4703;48.748;19.142;2023-05-07T03:16:20;4.70;;;4.30;;
9328;SDS011;4703;48.748;19.142;2023-05-07T03:18:48;5.43;;;4.93;;
9328;SDS011;4703;48.748;19.142;2023-05-07T03:21:15;4.70;;;4.40;;
9328;SDS011;4703;48.748;19.142;2023-05-07T03:23:42;4.60;;;4.20;;
9328;SDS011;4703;48.748;19.142;2023-05-07T03:26:08;5.27;;;4.70;;
9328;SDS011;4703;48.748;19.142;2023-05-07T03:28:36;4.87;;;4.47;;
9328;SDS011;4703;48.748;19.142;2023-05-07T03:31:03;5.70;;;4.27;;
9328;SDS011;4703;48.748;19.142;2023-05-07T03:33:34;5.17;;;4.57;;
9328;SDS011;4703;48.748;19.142;2023-05-07T03:36:01;5.23;;;4.83;;
9328;SDS011;4703;48.748;19.142;2023-05-07T03:38:28;4.57;;;4.27;;
9328;SDS011;4703;48.748;19.142;2023-05-07T03:40:55;5.37;;;4.80;;
9328;SDS011;4703;48.748;19.142;2023-05-07T03:43:22;4.80;;;4.40;;
9328;SDS011;4703;48.748;19.142;2023-05-07T03:45:49;5.20;;;4.80;;
9328;SDS011;4703;48.748;19.142;2023-05-07T03:48:16;4.93;;;4.53;;
9328;SDS011;4703;48.748;19.142;2023-05-07T03:50:43;4.63;;;4.30;;
9328;SDS011;4703;48.748;19.142;2023-05-07T03:53:10;5.00;;;4.60;;
9328;SDS011;4703;48.748;19.142;2023-05-07T03:55:37;4.50;;;4.10;;
9328;SDS011;4703;48.748;19.142;2023-05-07T03:58:04;4.80;;;4.40;;
9328;SDS011;4703;48.748;19.142;2023-05-07T04:00:31;4.67;;;4.27;;
9328;SDS011;4703;48.748;19.142;2023-05-07T04:03:03;4.37;;;3.97;;
9328;SDS011;4703;48.748;19.142;2023-05-07T04:05:31;3.90;;;3.60;;
9328;SDS011;4703;48.748;19.142;2023-05-07T04:07:58;4.10;;;3.80;;
9328;SDS011;4703;48.748;19.142;2023-05-07T04:10:25;4.43;;;4.13;;
9328;SDS011;4703;48.748;19.142;2023-05-07T04:12:54;4.30;;;4.00;;
9328;SDS011;4703;48.748;19.142;2023-05-07T04:15:21;5.43;;;4.93;;
9328;SDS011;4703;48.748;19.142;2023-05-07T04:17:49;4.40;;;4.10;;
9328;SDS011;4703;48.748;19.142;2023-05-07T04:20:16;5.17;;;4.77;;
9328;SDS011;4703;48.748;19.142;2023-05-07T04:22:43;4.60;;;4.20;;
9328;SDS011;4703;48.748;19.142;2023-05-07T04:25:10;5.00;;;4.60;;
9328;SDS011;4703;48.748;19.142;2023-05-07T04:27:37;5.70;;;5.13;;
9328;SDS011;4703;48.748;19.142;2023-05-07T04:30:04;4.40;;;4.00;;
9328;SDS011;4703;48.748;19.142;2023-05-07T04:32:32;5.23;;;4.73;;
9328;SDS011;4703;48.748;19.142;2023-05-07T04:34:59;4.57;;;4.17;;
9328;SDS011;4703;48.748;19.142;2023-05-07T04:37:26;5.60;;;5.10;;
9328;SDS011;4703;48.748;19.142;2023-05-07T04:39:53;5.03;;;4.60;;
9328;SDS011;4703;48.748;19.142;2023-05-07T04:42:20;4.50;;;4.10;;
9328;SDS011;4703;48.748;19.142;2023-05-07T04:44:47;5.40;;;5.00;;
9328;SDS011;4703;48.748;19.142;2023-05-07T04:47:19;5.80;;;5.33;;
9328;SDS011;4703;48.748;19.142;2023-05-07T04:49:46;4.97;;;4.57;;
9328;SDS011;4703;48.748;19.142;2023-05-07T04:52:13;5.33;;;4.20;;
9328;SDS011;4703;48.748;19.142;2023-05-07T04:54:40;5.67;;;5.23;;
9328;SDS011;4703;48.748;19.142;2023-05-07T04:57:07;5.33;;;4.83;;
9328;SDS011;4703;48.748;19.142;2023-05-07T04:59:34;5.50;;;5.00;;
9328;SDS011;4703;48.748;19.142;2023-05-07T05:02:01;4.87;;;4.47;;
9328;SDS011;4703;48.748;19.142;2023-05-07T05:04:28;5.50;;;5.00;;
9328;SDS011;4703;48.748;19.142;2023-05-07T05:06:55;4.77;;;4.37;;
9328;SDS011;4703;48.748;19.142;2023-05-07T05:09:22;4.83;;;4.33;;
9328;SDS011;4703;48.748;19.142;2023-05-07T05:11:48;4.90;;;4.50;;
9328;SDS011;4703;48.748;19.142;2023-05-07T05:14:15;5.47;;;4.97;;
9328;SDS011;4703;48.748;19.142;2023-05-07T05:16:42;5.60;;;5.20;;
9328;SDS011;4703;48.748;19.142;2023-05-07T05:19:09;5.13;;;4.73;;
9328;SDS011;4703;48.748;19.142;2023-05-07T05:21:36;5.63;;;5.13;;
9328;SDS011;4703;48.748;19.142;2023-05-07T05:24:03;5.73;;;5.13;;
9328;SDS011;4703;48.748;19.142;2023-05-07T05:26:30;5.97;;;5.47;;
9328;SDS011;4703;48.748;19.142;2023-05-07T05:28:57;5.57;;;5.10;;
9328;SDS011;4703;48.748;19.142;2023-05-07T05:31:24;6.40;;;5.13;;
9328;SDS011;4703;48.748;19.142;2023-05-07T05:33:51;6.40;;;5.37;;
9328;SDS011;4703;48.748;19.142;2023-05-07T05:36:18;6.53;;;5.30;;
9328;SDS011;4703;48.748;19.142;2023-05-07T05:38:45;6.87;;;5.40;;
9328;SDS011;4703;48.748;19.142;2023-05-07T05:41:12;4.80;;;4.40;;
9328;SDS011;4703;48.748;19.142;2023-05-07T05:43:39;4.90;;;4.50;;
9328;SDS011;4703;48.748;19.142;2023-05-07T05:46:06;5.13;;;4.80;;
9328;SDS011;4703;48.748;19.142;2023-05-07T05:48:34;5.30;;;4.90;;
9328;SDS011;4703;48.748;19.142;2023-05-07T05:51:01;4.93;;;4.50;;
9328;SDS011;4703;48.748;19.142;2023-05-07T05:53:28;6.80;;;6.10;;
9328;SDS011;4703;48.748;19.142;2023-05-07T05:55:55;7.07;;;6.40;;
9328;SDS011;4703;48.748;19.142;2023-05-07T05:58:22;5.83;;;5.20;;
9328;SDS011;4703;48.748;19.142;2023-05-07T06:00:49;6.07;;;5.50;;
9328;SDS011;4703;48.748;19.142;2023-05-07T06:03:18;6.10;;;5.57;;
9328;SDS011;4703;48.748;19.142;2023-05-07T06:05:45;5.47;;;4.70;;
9328;SDS011;4703;48.748;19.142;2023-05-07T06:08:12;5.77;;;5.27;;
9328;SDS011;4703;48.748;19.142;2023-05-07T06:10:39;5.90;;;5.40;;
9328;SDS011;4703;48.748;19.142;2023-05-07T06:13:07;7.10;;;6.50;;
9328;SDS011;4703;48.748;19.142;2023-05-07T06:15:34;6.37;;;5.77;;
9328;SDS011;4703;48.748;19.142;2023-05-07T06:18:01;6.33;;;5.80;;
9328;SDS011;4703;48.748;19.142;2023-05-07T06:20:28;6.93;;;6.23;;
9328;SDS011;4703;48.748;19.142;2023-05-07T06:22:55;5.67;;;5.20;;
9328;SDS011;4703;48.748;19.142;2023-05-07T06:25:22;7.77;;;7.10;;
9328;SDS011;4703;48.748;19.142;2023-05-07T06:27:49;6.93;;;6.33;;
9328;SDS011;4703;48.748;19.142;2023-05-07T06:30:15;6.43;;;5.93;;
9328;SDS011;4703;48.748;19.142;2023-05-07T06:32:42;6.60;;;6.00;;
9328;SDS011;4703;48.748;19.142;2023-05-07T06:35:09;12.30;;;10.57;;
9328;SDS011;4703;48.748;19.142;2023-05-07T06:37:37;8.40;;;7.70;;
9328;SDS011;4703;48.748;19.142;2023-05-07T06:40:05;10.33;;;9.33;;
9328;SDS011;4703;48.748;19.142;2023-05-07T06:42:35;8.57;;;7.70;;
9328;SDS011;4703;48.748;19.142;2023-05-07T06:45:02;6.43;;;5.93;;
9328;SDS011;4703;48.748;19.142;2023-05-07T06:47:30;6.77;;;6.27;;
9328;SDS011;4703;48.748;19.142;2023-05-07T06:49:57;6.67;;;6.10;;
9328;SDS011;4703;48.748;19.142;2023-05-07T06:52:24;6.40;;;5.90;;
9328;SDS011;4703;48.748;19.142;2023-05-07T06:54:51;6.33;;;5.83;;
9328;SDS011;4703;48.748;19.142;2023-05-07T06:57:18;7.83;;;7.13;;
9328;SDS011;4703;48.748;19.142;2023-05-07T06:59:45;7.07;;;6.57;;
9328;SDS011;4703;48.748;19.142;2023-05-07T07:02:12;7.03;;;6.43;;
9328;SDS011;4703;48.748;19.142;2023-05-07T07:04:40;7.30;;;6.60;;
9328;SDS011;4703;48.748;19.142;2023-05-07T07:07:08;8.43;;;7.70;;
9328;SDS011;4703;48.748;19.142;2023-05-07T07:09:35;8.30;;;7.60;;
9328;SDS011;4703;48.748;19.142;2023-05-07T07:12:01;7.63;;;7.03;;
9328;SDS011;4703;48.748;19.142;2023-05-07T07:14:28;8.00;;;7.30;;
9328;SDS011;4703;48.748;19.142;2023-05-07T07:16:55;7.70;;;7.10;;
9328;SDS011;4703;48.748;19.142;2023-05-07T07:19:22;8.00;;;7.30;;
9328;SDS011;4703;48.748;19.142;2023-05-07T07:21:50;8.73;;;7.93;;
9328;SDS011;4703;48.748;19.142;2023-05-07T07:24:17;13.63;;;12.20;;
9328;SDS011;4703;48.748;19.142;2023-05-07T07:26:47;23.73;;;19.00;;
9328;SDS011;4703;48.748;19.142;2023-05-07T07:29:14;9.67;;;8.77;;
9328;SDS011;4703;48.748;19.142;2023-05-07T07:31:41;9.57;;;8.67;;
9328;SDS011;4703;48.748;19.142;2023-05-07T07:34:09;9.20;;;8.30;;
9328;SDS011;4703;48.748;19.142;2023-05-07T07:36:36;8.67;;;7.97;;
9328;SDS011;4703;48.748;19.142;2023-05-07T07:39:12;8.13;;;7.43;;
9328;SDS011;4703;48.748;19.142;2023-05-07T07:41:39;9.20;;;8.40;;
9328;SDS011;4703;48.748;19.142;2023-05-07T07:44:06;8.90;;;7.30;;
9328;SDS011;4703;48.748;19.142;2023-05-07T07:46:34;7.93;;;7.33;;
9328;SDS011;4703;48.748;19.142;2023-05-07T07:49:02;7.33;;;6.63;;
9328;SDS011;4703;48.748;19.142;2023-05-07T07:51:29;7.90;;;7.20;;
9328;SDS011;4703;48.748;19.142;2023-05-07T07:53:56;7.53;;;6.93;;
9328;SDS011;4703;48.748;19.142;2023-05-07T07:56:25;7.50;;;6.90;;
9328;SDS011;4703;48.748;19.142;2023-05-07T07:58:52;8.00;;;7.30;;
9328;SDS011;4703;48.748;19.142;2023-05-07T08:01:19;8.50;;;7.10;;
9328;SDS011;4703;48.748;19.142;2023-05-07T08:03:46;7.20;;;6.57;;
9328;SDS011;4703;48.748;19.142;2023-05-07T08:06:13;7.03;;;6.43;;
9328;SDS011;4703;48.748;19.142;2023-05-07T08:08:40;7.03;;;6.43;;
9328;SDS011;4703;48.748;19.142;2023-05-07T08:11:07;7.87;;;7.17;;
9328;SDS011;4703;48.748;19.142;2023-05-07T08:13:34;8.37;;;7.40;;
9328;SDS011;4703;48.748;19.142;2023-05-07T08:16:02;8.97;;;8.07;;
9328;SDS011;4703;48.748;19.142;2023-05-07T08:18:29;7.80;;;7.10;;
9328;SDS011;4703;48.748;19.142;2023-05-07T08:20:56;9.60;;;8.60;;
9328;SDS011;4703;48.748;19.142;2023-05-07T08:23:23;8.33;;;7.53;;
9328;SDS011;4703;48.748;19.142;2023-05-07T08:25:50;10.03;;;9.13;;
9328;SDS011;4703;48.748;19.142;2023-05-07T08:28:17;10.33;;;9.27;;
9328;SDS011;4703;48.748;19.142;2023-05-07T08:30:45;10.30;;;8.30;;
9328;SDS011;4703;48.748;19.142;2023-05-07T08:33:12;10.40;;;8.10;;
9328;SDS011;4703;48.748;19.142;2023-05-07T08:35:39;9.97;;;8.83;;
9328;SDS011;4703;48.748;19.142;2023-05-07T08:38:06;10.57;;;9.50;;
9328;SDS011;4703;48.748;19.142;2023-05-07T08:40:37;9.70;;;8.73;;
9328;SDS011;4703;48.748;19.142;2023-05-07T08:43:07;9.27;;;8.47;;
9328;SDS011;4703;48.748;19.142;2023-05-07T08:45:34;9.90;;;8.90;;
9328;SDS011;4703;48.748;19.142;2023-05-07T08:48:02;10.10;;;9.10;;
9328;SDS011;4703;48.748;19.142;2023-05-07T08:50:32;9.50;;;8.60;;
9328;SDS011;4703;48.748;19.142;2023-05-07T08:53:03;9.77;;;8.83;;
9328;SDS011;4703;48.748;19.142;2023-05-07T08:55:31;8.80;;;8.00;;
9328;SDS011;4703;48.748;19.142;2023-05-07T08:57:59;9.50;;;8.60;;
9328;SDS011;4703;48.748;19.142;2023-05-07T09:00:27;9.77;;;8.27;;
9328;SDS011;4703;48.748;19.142;2023-05-07T09:02:54;9.10;;;8.30;;
9328;SDS011;4703;48.748;19.142;2023-05-07T09:05:21;8.53;;;7.63;;
9328;SDS011;4703;48.748;19.142;2023-05-07T09:07:48;6.87;;;6.27;;
9328;SDS011;4703;48.748;19.142;2023-05-07T09:10:20;5.97;;;5.47;;
9328;SDS011;4703;48.748;19.142;2023-05-07T09:12:47;7.13;;;6.53;;
9328;SDS011;4703;48.748;19.142;2023-05-07T09:15:15;5.93;;;5.43;;
9328;SDS011;4703;48.748;19.142;2023-05-07T09:17:42;5.90;;;5.33;;
9328;SDS011;4703;48.748;19.142;2023-05-07T09:20:10;5.67;;;5.17;;
9328;SDS011;4703;48.748;19.142;2023-05-07T09:22:37;4.00;;;3.70;;
9328;SDS011;4703;48.748;19.142;2023-05-07T09:25:06;3.53;;;2.63;;
9328;SDS011;4703;48.748;19.142;2023-05-07T09:27:34;3.13;;;2.93;;
9328;SDS011;4703;48.748;19.142;2023-05-07T09:30:05;2.80;;;2.60;;
9328;SDS011;4703;48.748;19.142;2023-05-07T09:32:36;3.07;;;2.87;;
9328;SDS011;4703;48.748;19.142;2023-05-07T09:35:09;3.13;;;2.83;;
9328;SDS011;4703;48.748;19.142;2023-05-07T09:37:43;3.43;;;3.23;;
9328;SDS011;4703;48.748;19.142;2023-05-07T09:40:23;2.90;;;2.70;;
9328;SDS011;4703;48.748;19.142;2023-05-07T09:42:56;3.33;;;3.00;;
9328;SDS011;4703;48.748;19.142;2023-05-07T09:45:35;2.70;;;2.50;;
9328;SDS011;4703;48.748;19.142;2023-05-07T09:48:04;2.83;;;2.50;;
9328;SDS011;4703;48.748;19.142;2023-05-07T09:50:40;2.60;;;2.40;;
9328;SDS011;4703;48.748;19.142;2023-05-07T09:53:16;3.23;;;3.03;;
9328;SDS011;4703;48.748;19.142;2023-05-07T09:55:43;3.27;;;3.03;;
9328;SDS011;4703;48.748;19.142;2023-05-07T09:58:12;3.53;;;3.30;;
9328;SDS011;4703;48.748;19.142;2023-05-07T10:00:41;4.30;;;3.33;;
9328;SDS011;4703;48.748;19.142;2023-05-07T10:03:08;3.57;;;3.27;;
9328;SDS011;4703;48.748;19.142;2023-05-07T10:05:37;3.70;;;3.40;;
9328;SDS011;4703;48.748;19.142;2023-05-07T10:08:04;3.73;;;3.43;;
9328;SDS011;4703;48.748;19.142;2023-05-07T10:10:32;3.93;;;3.50;;
9328;SDS011;4703;48.748;19.142;2023-05-07T10:13:01;3.43;;;3.13;;
9328;SDS011;4703;48.748;19.142;2023-05-07T10:15:32;14.30;;;12.77;;
9328;SDS011;4703;48.748;19.142;2023-05-07T10:18:00;4.10;;;3.70;;
9328;SDS011;4703;48.748;19.142;2023-05-07T10:20:30;3.33;;;3.07;;
9328;SDS011;4703;48.748;19.142;2023-05-07T10:22:59;3.20;;;2.90;;
9328;SDS011;4703;48.748;19.142;2023-05-07T10:25:30;4.10;;;3.80;;
9328;SDS011;4703;48.748;19.142;2023-05-07T10:28:04;3.37;;;3.17;;
9328;SDS011;4703;48.748;19.142;2023-05-07T10:33:29;3.43;;;3.23;;
9328;SDS011;4703;48.748;19.142;2023-05-07T10:35:58;4.53;;;3.50;;
9328;SDS011;4703;48.748;19.142;2023-05-07T10:38:28;4.50;;;4.10;;
9328;SDS011;4703;48.748;19.142;2023-05-07T10:40:56;4.67;;;4.27;;
9328;SDS011;4703;48.748;19.142;2023-05-07T10:43:23;3.90;;;3.50;;
9328;SDS011;4703;48.748;19.142;2023-05-07T10:46:14;3.40;;;3.17;;
9328;SDS011;4703;48.748;19.142;2023-05-07T10:51:32;4.00;;;3.70;;
9328;SDS011;4703;48.748;19.142;2023-05-07T10:56:42;3.87;;;3.57;;
9328;SDS011;4703;48.748;19.142;2023-05-07T11:01:57;3.30;;;3.00;;
9328;SDS011;4703;48.748;19.142;2023-05-07T11:04:29;3.63;;;3.33;;
9328;SDS011;4703;48.748;19.142;2023-05-07T11:07:21;3.93;;;3.63;;
9328;SDS011;4703;48.748;19.142;2023-05-07T11:15:08;4.20;;;3.80;;
9328;SDS011;4703;48.748;19.142;2023-05-07T11:17:52;3.93;;;3.70;;
9328;SDS011;4703;48.748;19.142;2023-05-07T11:26:00;3.47;;;3.27;;
9328;SDS011;4703;48.748;19.142;2023-05-07T11:28:30;3.90;;;3.57;;
9328;SDS011;4703;48.748;19.142;2023-05-07T11:31:03;3.97;;;3.63;;
9328;SDS011;4703;48.748;19.142;2023-05-07T11:33:31;3.40;;;3.20;;
9328;SDS011;4703;48.748;19.142;2023-05-07T11:35:59;4.17;;;3.77;;
9328;SDS011;4703;48.748;19.142;2023-05-07T11:38:26;3.47;;;3.27;;
9328;SDS011;4703;48.748;19.142;2023-05-07T11:40:56;4.60;;;3.40;;
9328;SDS011;4703;48.748;19.142;2023-05-07T11:43:27;4.10;;;3.80;;
9328;SDS011;4703;48.748;19.142;2023-05-07T11:45:54;3.83;;;3.53;;
9328;SDS011;4703;48.748;19.142;2023-05-07T11:48:21;4.10;;;3.80;;
9328;SDS011;4703;48.748;19.142;2023-05-07T11:50:52;3.50;;;3.20;;
9328;SDS011;4703;48.748;19.142;2023-05-07T11:53:27;3.30;;;3.10;;
9328;SDS011;4703;48.748;19.142;2023-05-07T11:58:37;4.10;;;3.80;;
9328;SDS011;4703;48.748;19.142;2023-05-07T12:01:09;3.63;;;3.40;;
9328;SDS011;4703;48.748;19.142;2023-05-07T12:03:42;3.57;;;3.37;;
9328;SDS011;4703;48.748;19.142;2023-05-07T12:06:13;4.70;;;4.30;;
9328;SDS011;4703;48.748;19.142;2023-05-07T12:08:44;3.67;;;3.37;;
9328;SDS011;4703;48.748;19.142;2023-05-07T12:11:21;3.60;;;3.40;;
9328;SDS011;4703;48.748;19.142;2023-05-07T12:13:51;4.80;;;4.07;;
9328;SDS011;4703;48.748;19.142;2023-05-07T12:16:24;3.43;;;3.13;;
9328;SDS011;4703;48.748;19.142;2023-05-07T12:18:53;3.10;;;2.90;;
9328;SDS011;4703;48.748;19.142;2023-05-07T12:21:21;3.70;;;3.40;;
9328;SDS011;4703;48.748;19.142;2023-05-07T12:23:49;3.83;;;3.57;;
9328;SDS011;4703;48.748;19.142;2023-05-07T12:26:16;4.00;;;3.70;;
9328;SDS011;4703;48.748;19.142;2023-05-07T12:28:45;3.57;;;3.37;;
9328;SDS011;4703;48.748;19.142;2023-05-07T12:31:13;3.83;;;3.50;;
9328;SDS011;4703;48.748;19.142;2023-05-07T12:33:41;4.17;;;3.80;;
9328;SDS011;4703;48.748;19.142;2023-05-07T12:36:11;3.43;;;3.23;;
9328;SDS011;4703;48.748;19.142;2023-05-07T12:38:40;4.03;;;3.73;;
9328;SDS011;4703;48.748;19.142;2023-05-07T12:41:08;4.10;;;3.80;;
9328;SDS011;4703;48.748;19.142;2023-05-07T12:43:38;3.53;;;3.33;;
9328;SDS011;4703;48.748;19.142;2023-05-07T12:46:06;3.60;;;3.30;;
9328;SDS011;4703;48.748;19.142;2023-05-07T12:48:41;4.07;;;3.77;;
9328;SDS011;4703;48.748;19.142;2023-05-07T12:51:12;3.90;;;3.60;;
9328;SDS011;4703;48.748;19.142;2023-05-07T12:53:41;5.17;;;3.60;;
9328;SDS011;4703;48.748;19.142;2023-05-07T12:56:09;4.13;;;3.80;;
9328;SDS011;4703;48.748;19.142;2023-05-07T12:58:36;3.83;;;3.53;;
9328;SDS011;4703;48.748;19.142;2023-05-07T13:01:06;4.40;;;4.00;;
9328;SDS011;4703;48.748;19.142;2023-05-07T13:03:36;4.10;;;3.80;;
9328;SDS011;4703;48.748;19.142;2023-05-07T13:06:05;4.70;;;4.30;;
9328;SDS011;4703;48.748;19.142;2023-05-07T13:08:37;4.63;;;4.23;;
9328;SDS011;4703;48.748;19.142;2023-05-07T13:11:09;4.10;;;3.77;;
9328;SDS011;4703;48.748;19.142;2023-05-07T13:13:37;4.50;;;4.17;;
9328;SDS011;4703;48.748;19.142;2023-05-07T13:16:07;4.50;;;4.13;;
9328;SDS011;4703;48.748;19.142;2023-05-07T13:18:37;3.43;;;3.13;;
9328;SDS011;4703;48.748;19.142;2023-05-07T13:21:06;3.50;;;3.20;;
9328;SDS011;4703;48.748;19.142;2023-05-07T13:23:34;4.00;;;3.70;;
9328;SDS011;4703;48.748;19.142;2023-05-07T13:26:00;4.07;;;3.77;;
9328;SDS011;4703;48.748;19.142;2023-05-07T13:28:40;3.50;;;3.30;;
9328;SDS011;4703;48.748;19.142;2023-05-07T13:31:08;3.33;;;3.07;;
9328;SDS011;4703;48.748;19.142;2023-05-07T13:33:35;4.00;;;3.60;;
9328;SDS011;4703;48.748;19.142;2023-05-07T13:36:02;3.87;;;3.57;;
9328;SDS011;4703;48.748;19.142;2023-05-07T13:38:31;3.50;;;3.20;;
9328;SDS011;4703;48.748;19.142;2023-05-07T13:40:58;2.97;;;2.77;;
9328;SDS011;4703;48.748;19.142;2023-05-07T13:43:25;3.70;;;3.40;;
9328;SDS011;4703;48.748;19.142;2023-05-07T13:45:52;3.77;;;3.47;;
9328;SDS011;4703;48.748;19.142;2023-05-07T13:48:19;3.53;;;3.33;;
9328;SDS011;4703;48.748;19.142;2023-05-07T13:50:46;4.07;;;3.77;;
9328;SDS011;4703;48.748;19.142;2023-05-07T13:53:13;4.40;;;4.10;;
9328;SDS011;4703;48.748;19.142;2023-05-07T13:55:44;6.60;;;3.90;;
9328;SDS011;4703;48.748;19.142;2023-05-07T13:58:11;4.50;;;4.20;;
9328;SDS011;4703;48.748;19.142;2023-05-07T14:00:38;4.73;;;3.90;;
9328;SDS011;4703;48.748;19.142;2023-05-07T14:03:05;5.47;;;4.57;;
9328;SDS011;4703;48.748;19.142;2023-05-07T14:05:32;4.50;;;4.20;;
9328;SDS011;4703;48.748;19.142;2023-05-07T14:07:59;5.70;;;5.30;;
9328;SDS011;4703;48.748;19.142;2023-05-07T14:10:26;4.83;;;4.53;;
9328;SDS011;4703;48.748;19.142;2023-05-07T14:12:53;5.60;;;5.10;;
9328;SDS011;4703;48.748;19.142;2023-05-07T14:15:21;5.00;;;4.70;;
9328;SDS011;4703;48.748;19.142;2023-05-07T14:17:48;5.00;;;4.60;;
9328;SDS011;4703;48.748;19.142;2023-05-07T14:20:15;5.10;;;4.70;;
9328;SDS011;4703;48.748;19.142;2023-05-07T14:22:42;4.60;;;4.30;;
9328;SDS011;4703;48.748;19.142;2023-05-07T14:25:09;5.37;;;4.97;;
9328;SDS011;4703;48.748;19.142;2023-05-07T14:27:36;5.37;;;4.97;;
9328;SDS011;4703;48.748;19.142;2023-05-07T14:30:03;5.70;;;5.30;;
9328;SDS011;4703;48.748;19.142;2023-05-07T14:32:31;5.33;;;4.87;;
9328;SDS011;4703;48.748;19.142;2023-05-07T14:34:59;5.47;;;5.07;;
9328;SDS011;4703;48.748;19.142;2023-05-07T14:37:26;5.47;;;5.07;;
9328;SDS011;4703;48.748;19.142;2023-05-07T14:39:54;4.93;;;4.53;;
9328;SDS011;4703;48.748;19.142;2023-05-07T14:42:21;5.07;;;4.70;;
9328;SDS011;4703;48.748;19.142;2023-05-07T14:44:48;5.40;;;5.00;;
9328;SDS011;4703;48.748;19.142;2023-05-07T14:47:15;5.60;;;5.20;;
9328;SDS011;4703;48.748;19.142;2023-05-07T14:49:44;6.20;;;5.70;;
9328;SDS011;4703;48.748;19.142;2023-05-07T14:52:11;5.70;;;5.30;;
9328;SDS011;4703;48.748;19.142;2023-05-07T14:54:38;6.10;;;5.70;;
9328;SDS011;4703;48.748;19.142;2023-05-07T14:57:06;6.33;;;5.90;;
9328;SDS011;4703;48.748;19.142;2023-05-07T14:59:36;6.30;;;5.80;;
9328;SDS011;4703;48.748;19.142;2023-05-07T15:02:04;5.40;;;5.00;;
9328;SDS011;4703;48.748;19.142;2023-05-07T15:04:34;5.77;;;5.37;;
9328;SDS011;4703;48.748;19.142;2023-05-07T15:07:01;6.00;;;5.60;;
9328;SDS011;4703;48.748;19.142;2023-05-07T15:09:28;6.27;;;5.77;;
9328;SDS011;4703;48.748;19.142;2023-05-07T15:11:56;6.17;;;5.57;;
9328;SDS011;4703;48.748;19.142;2023-05-07T15:14:22;5.90;;;5.50;;
9328;SDS011;4703;48.748;19.142;2023-05-07T15:16:49;5.87;;;5.47;;
9328;SDS011;4703;48.748;19.142;2023-05-07T15:19:16;5.70;;;5.40;;
9328;SDS011;4703;48.748;19.142;2023-05-07T15:21:43;5.90;;;5.50;;
9328;SDS011;4703;48.748;19.142;2023-05-07T15:24:10;6.77;;;6.17;;
9328;SDS011;4703;48.748;19.142;2023-05-07T15:26:37;5.47;;;5.17;;
9328;SDS011;4703;48.748;19.142;2023-05-07T15:29:04;5.93;;;5.53;;
9328;SDS011;4703;48.748;19.142;2023-05-07T15:31:36;5.60;;;5.20;;